Polis 139 9970 — SFC7681 — position and weather

sailwx.info

Track history (hours):
 
Tides and Currents Weather Stations Pressure Air Temp Water Temp Dewpoint Dewpoint Depression Visibility Wind Speed Wind Dir Waves Ship Positions

Polis 139 9970

Last reported at 2017-Dec-04 09:36 UTC. Time now 2017-Dec-16 13:11 UTC.
Position N 58°59' E 018°04'.
Warning: this ship's position is 12 days out of date.

Length 16 m.

Type: Law enforcement. MMSI: 265565250.

Date/timePositionNaut miles runAvg speedWind from/ knotsBaromVisibWave heightAir tempDewpointWater temp
2017-Dec-04 09:36N 58°59' E 018°04'0 0.1
2017-Dec-04 09:29N 58°59' E 018°04'0 0.0
2017-Dec-04 09:00N 58°59' E 018°04'0 0.0
2017-Dec-04 08:30N 58°59' E 018°04'0 0.0
2017-Dec-04 08:00N 58°59' E 018°04'  
2017-Dec-01 10:13N 58°59' E 018°04'418.3
2017-Dec-01 09:58N 59°03' E 018°07'610.0
2017-Dec-01 09:21N 58°57' E 018°02'2 0.8
2017-Dec-01 06:52N 58°59' E 018°04'0 0.0
2017-Nov-30 01:00N 58°59' E 018°04'0 0.0
2017-Nov-29 17:11N 58°59' E 018°04'0 0.0
2017-Nov-29 15:38N 58°59' E 018°04'0 0.0
2017-Nov-29 15:11N 58°59' E 018°04'0 0.0
2017-Nov-29 14:54N 58°59' E 018°04'0 0.0
2017-Nov-29 09:57N 58°59' E 018°04'2017.6
2017-Nov-29 08:50N 59°16' E 018°22'412.2
2017-Nov-29 08:30N 59°18' E 018°15'3 6.3
2017-Nov-29 08:00N 59°19' E 018°10'0 0.3
2017-Nov-29 07:30N 59°19' E 018°10'0 0.0
2017-Nov-29 07:00N 59°19' E 018°10'0 0.0
2017-Nov-29 06:31N 59°19' E 018°10'0 0.0
2017-Nov-29 06:01N 59°19' E 018°10'0 0.0
2017-Nov-29 05:30N 59°19' E 018°10'0 0.0
2017-Nov-29 05:00N 59°19' E 018°10'0 0.0
2017-Nov-29 04:31N 59°19' E 018°10'0 0.0
2017-Nov-29 04:00N 59°19' E 018°10'0 0.0
2017-Nov-29 03:30N 59°19' E 018°10'0 0.0
2017-Nov-29 03:00N 59°19' E 018°10'0 0.0
2017-Nov-29 02:30N 59°19' E 018°10'0 0.0
2017-Nov-29 02:00N 59°19' E 018°10'0 0.0
2017-Nov-29 01:30N 59°19' E 018°10'0 0.0
2017-Nov-29 01:00N 59°19' E 018°10'0 0.0
2017-Nov-29 00:30N 59°19' E 018°10'0 0.0
2017-Nov-29 00:00N 59°19' E 018°10'0 0.0
2017-Nov-28 23:30N 59°19' E 018°10'0 0.0
2017-Nov-28 23:00N 59°19' E 018°10'0 0.0
2017-Nov-28 22:30N 59°19' E 018°10'0 0.0
2017-Nov-28 21:59N 59°19' E 018°10'0 0.0
2017-Nov-28 21:30N 59°19' E 018°10'0 0.0
2017-Nov-28 21:00N 59°19' E 018°10'0 0.0
2017-Nov-28 20:30N 59°19' E 018°10'0 0.0
2017-Nov-28 20:01N 59°19' E 018°10'0 0.0
2017-Nov-28 19:30N 59°19' E 018°10'0 0.0
2017-Nov-28 19:00N 59°19' E 018°10'0 0.0
2017-Nov-28 18:30N 59°19' E 018°10'0 0.0
2017-Nov-28 18:00N 59°19' E 018°10'0 0.0
2017-Nov-28 17:30N 59°19' E 018°10'0 0.0
2017-Nov-28 17:00N 59°19' E 018°10'0 0.0
2017-Nov-28 16:30N 59°19' E 018°10'0 0.0
2017-Nov-28 16:00N 59°19' E 018°10'0 0.0
2017-Nov-28 15:00N 59°19' E 018°10'0 0.0
2017-Nov-28 14:30N 59°19' E 018°10'0 0.0
2017-Nov-28 14:01N 59°19' E 018°10'0 0.6
2017-Nov-28 13:30N 59°19' E 018°10'9 0.3
2017-Nov-27 07:50N 59°22' E 018°27'928.4
2017-Nov-27 07:30N 59°19' E 018°10'0 0.2
2017-Nov-27 07:00N 59°19' E 018°10'0 0.0
2017-Nov-27 06:30N 59°19' E 018°10'0 0.0
2017-Nov-27 06:00N 59°19' E 018°10'0 0.0
2017-Nov-27 05:30N 59°19' E 018°10'0 0.0
2017-Nov-27 05:00N 59°19' E 018°10'0 0.0
2017-Nov-27 04:30N 59°19' E 018°10'0 0.0
2017-Nov-27 04:00N 59°19' E 018°10'0 0.0
2017-Nov-27 03:30N 59°19' E 018°10'0 0.0
2017-Nov-27 03:00N 59°19' E 018°10'0 0.0
2017-Nov-27 02:30N 59°19' E 018°10'0 0.0
2017-Nov-27 02:00N 59°19' E 018°10'0 0.0
2017-Nov-27 01:30N 59°19' E 018°10'0 0.0
2017-Nov-27 01:00N 59°19' E 018°10'0 0.0
2017-Nov-27 00:30N 59°19' E 018°10'0 0.0
2017-Nov-27 00:00N 59°19' E 018°10'0 0.0
2017-Nov-26 23:30N 59°19' E 018°10'0 0.0
2017-Nov-26 23:00N 59°19' E 018°10'0 0.0
2017-Nov-26 22:30N 59°19' E 018°10'0 0.0
2017-Nov-26 22:00N 59°19' E 018°10'0 0.0
2017-Nov-26 21:30N 59°19' E 018°10'0 0.0
2017-Nov-26 21:00N 59°19' E 018°10'0 0.0
2017-Nov-26 20:30N 59°19' E 018°10'0 0.0
2017-Nov-26 20:00N 59°19' E 018°10'0 0.0
2017-Nov-26 19:30N 59°19' E 018°10'0 0.0
2017-Nov-26 19:00N 59°19' E 018°10'0 0.0
2017-Nov-26 18:30N 59°19' E 018°10'0 0.0
2017-Nov-26 18:00N 59°19' E 018°10'0 0.0
2017-Nov-26 17:30N 59°19' E 018°10'0 0.0
2017-Nov-26 17:00N 59°19' E 018°10'0 0.0
2017-Nov-26 16:30N 59°19' E 018°10'0 0.0
2017-Nov-26 16:00N 59°19' E 018°10'0 0.0
2017-Nov-26 15:30N 59°19' E 018°10'0 0.0
2017-Nov-26 15:00N 59°19' E 018°10'0 0.0
2017-Nov-26 14:30N 59°19' E 018°10'0 0.0
2017-Nov-26 14:00N 59°19' E 018°10'0 0.0
2017-Nov-26 13:30N 59°19' E 018°10'0 0.0
2017-Nov-26 13:00N 59°19' E 018°10'0 0.0
2017-Nov-26 12:30N 59°19' E 018°10'0 0.0
2017-Nov-26 12:00N 59°19' E 018°10'0 0.0
2017-Nov-26 11:30N 59°19' E 018°10'0 0.0
2017-Nov-26 11:00N 59°19' E 018°10'0 0.0
2017-Nov-26 10:30N 59°19' E 018°10'0 0.0
2017-Nov-26 10:00N 59°19' E 018°10'0 0.0
2017-Nov-26 09:30N 59°19' E 018°10'0 0.0
2017-Nov-26 09:00N 59°19' E 018°10'0 0.0
2017-Nov-26 08:30N 59°19' E 018°10'0 0.0
2017-Nov-26 08:00N 59°19' E 018°10'0 0.0
2017-Nov-26 07:30N 59°19' E 018°10'0 0.0
2017-Nov-26 07:00N 59°19' E 018°10'0 0.0
2017-Nov-26 06:30N 59°19' E 018°10'0 0.0
2017-Nov-26 06:00N 59°19' E 018°10'0 0.0
2017-Nov-26 05:30N 59°19' E 018°10'0 0.0
2017-Nov-26 05:00N 59°19' E 018°10'0 0.0
2017-Nov-26 04:30N 59°19' E 018°10'0 0.0
2017-Nov-26 04:00N 59°19' E 018°10'0 0.0
2017-Nov-26 03:30N 59°19' E 018°10'0 0.0
2017-Nov-26 03:00N 59°19' E 018°10'0 0.0
2017-Nov-26 02:30N 59°19' E 018°10'0 0.0
2017-Nov-26 02:00N 59°19' E 018°10'0 0.0
2017-Nov-26 01:30N 59°19' E 018°10'0 0.0
2017-Nov-26 01:00N 59°19' E 018°10'0 0.0
2017-Nov-26 00:30N 59°19' E 018°10'0 0.0
2017-Nov-26 00:00N 59°19' E 018°10'0 0.0
2017-Nov-25 23:30N 59°19' E 018°10'0 0.0
2017-Nov-25 23:00N 59°19' E 018°10'0 0.0
2017-Nov-25 22:30N 59°19' E 018°10'0 0.0
2017-Nov-25 22:00N 59°19' E 018°10'0 0.0
2017-Nov-25 21:30N 59°19' E 018°10'0 0.0
2017-Nov-25 21:00N 59°19' E 018°10'0 0.0
2017-Nov-25 20:30N 59°19' E 018°10'0 0.0
2017-Nov-25 20:00N 59°19' E 018°10'0 0.0
2017-Nov-25 19:30N 59°19' E 018°10'0 0.0
2017-Nov-25 19:00N 59°19' E 018°10'0 0.0
2017-Nov-25 18:30N 59°19' E 018°10'0 0.0
2017-Nov-25 18:00N 59°19' E 018°10'0 0.0
2017-Nov-25 17:29N 59°19' E 018°10'0 0.0
2017-Nov-25 16:59N 59°19' E 018°10'0 0.0
2017-Nov-25 16:30N 59°19' E 018°10'0 0.0
2017-Nov-25 16:00N 59°19' E 018°10'0 0.0
2017-Nov-25 15:30N 59°19' E 018°10'0 0.0
2017-Nov-25 15:00N 59°19' E 018°10'0 0.0
2017-Nov-25 14:30N 59°19' E 018°10'0 0.0
2017-Nov-25 14:00N 59°19' E 018°10'0 0.0
2017-Nov-25 13:30N 59°19' E 018°10'0 0.0
2017-Nov-25 13:00N 59°19' E 018°10'0 0.0
2017-Nov-25 12:30N 59°19' E 018°10'0 0.0
2017-Nov-25 12:00N 59°19' E 018°10'0 0.0
2017-Nov-25 11:30N 59°19' E 018°10'0 0.0
2017-Nov-25 11:00N 59°19' E 018°10'0 0.0
2017-Nov-25 10:30N 59°19' E 018°10'0 0.0
2017-Nov-25 10:00N 59°19' E 018°10'0 0.0
2017-Nov-25 09:30N 59°19' E 018°10'0 0.0
2017-Nov-25 09:00N 59°19' E 018°10'0 0.0
2017-Nov-25 08:30N 59°19' E 018°10'0 0.0
2017-Nov-25 08:00N 59°19' E 018°10'0 0.0
2017-Nov-25 07:30N 59°19' E 018°10'0 0.0
2017-Nov-25 07:00N 59°19' E 018°10'0 0.0
2017-Nov-25 06:30N 59°19' E 018°10'0 0.0
2017-Nov-25 06:00N 59°19' E 018°10'0 0.0
2017-Nov-25 05:30N 59°19' E 018°10'0 0.0
2017-Nov-25 05:00N 59°19' E 018°10'0 0.0
2017-Nov-25 04:30N 59°19' E 018°10'0 0.0
2017-Nov-25 04:00N 59°19' E 018°10'0 0.0
2017-Nov-25 03:30N 59°19' E 018°10'0 0.0
2017-Nov-25 03:00N 59°19' E 018°10'0 0.0
2017-Nov-25 02:30N 59°19' E 018°10'0 0.0
2017-Nov-25 02:00N 59°19' E 018°10'0 0.0
2017-Nov-25 01:30N 59°19' E 018°10'0 0.0
2017-Nov-25 01:00N 59°19' E 018°10'0 0.0
2017-Nov-25 00:30N 59°19' E 018°10'0 0.0
2017-Nov-25 00:00N 59°19' E 018°10'0 0.0
2017-Nov-24 23:30N 59°19' E 018°10'0 0.0
2017-Nov-24 23:00N 59°19' E 018°10'0 0.0
2017-Nov-24 22:30N 59°19' E 018°10'0 0.0
2017-Nov-24 22:00N 59°19' E 018°10'0 0.0
2017-Nov-24 21:30N 59°19' E 018°10'0 0.0
2017-Nov-24 21:00N 59°19' E 018°10'0 0.0
2017-Nov-24 20:30N 59°19' E 018°10'0 0.0
2017-Nov-24 20:00N 59°19' E 018°10'0 0.0
2017-Nov-24 19:30N 59°19' E 018°10'0 0.0
2017-Nov-24 19:00N 59°19' E 018°10'0 0.0
2017-Nov-24 18:30N 59°19' E 018°10'0 0.0
2017-Nov-24 18:00N 59°19' E 018°10'0 0.0
2017-Nov-24 17:30N 59°19' E 018°10'0 0.0
2017-Nov-24 17:00N 59°19' E 018°10'0 0.0
2017-Nov-24 16:30N 59°19' E 018°10'0 0.0
2017-Nov-24 16:00N 59°19' E 018°10'0 0.0
2017-Nov-24 15:30N 59°19' E 018°10'0 0.0
2017-Nov-24 15:00N 59°19' E 018°10'0 0.0
2017-Nov-24 14:30N 59°19' E 018°10'0 0.0
2017-Nov-24 14:00N 59°19' E 018°10'0 0.0
2017-Nov-24 13:30N 59°19' E 018°10'0 0.0
2017-Nov-24 13:00N 59°19' E 018°10'0 0.0
2017-Nov-24 12:30N 59°19' E 018°10'0 0.0
2017-Nov-24 12:00N 59°19' E 018°10'0 0.0
2017-Nov-24 11:30N 59°19' E 018°10'0 0.0
2017-Nov-24 11:00N 59°19' E 018°10'0 0.0
2017-Nov-24 10:30N 59°19' E 018°10'0 0.0
2017-Nov-24 10:00N 59°19' E 018°10'  
Track history (hours):
 
Tides and Currents Weather Stations Pressure Air Temp Water Temp Dewpoint Dewpoint Depression Visibility Wind Speed Wind Dir Waves Ship Positions

Polis 139 9970

Last reported at 2017-Dec-04 09:36 UTC. Time now 2017-Dec-16 13:11 UTC.
Position N 58°59' E 018°04'.
Warning: this ship's position is 12 days out of date.

Length 16 m.

Type: Law enforcement. MMSI: 265565250.

Date/timePositionNaut miles runAvg speedWind from/ knotsBaromVisibWave heightAir tempDewpointWater temp
2017-Dec-04 09:36N 58°59' E 018°04'0 0.1
2017-Dec-04 09:29N 58°59' E 018°04'0 0.0
2017-Dec-04 09:00N 58°59' E 018°04'0 0.0
2017-Dec-04 08:30N 58°59' E 018°04'0 0.0
2017-Dec-04 08:00N 58°59' E 018°04'  
2017-Dec-01 10:13N 58°59' E 018°04'418.3
2017-Dec-01 09:58N 59°03' E 018°07'610.0
2017-Dec-01 09:21N 58°57' E 018°02'2 0.8
2017-Dec-01 06:52N 58°59' E 018°04'0 0.0
2017-Nov-30 01:00N 58°59' E 018°04'0 0.0
2017-Nov-29 17:11N 58°59' E 018°04'0 0.0
2017-Nov-29 15:38N 58°59' E 018°04'0 0.0
2017-Nov-29 15:11N 58°59' E 018°04'0 0.0
2017-Nov-29 14:54N 58°59' E 018°04'0 0.0
2017-Nov-29 09:57N 58°59' E 018°04'2017.6
2017-Nov-29 08:50N 59°16' E 018°22'412.2
2017-Nov-29 08:30N 59°18' E 018°15'3 6.3
2017-Nov-29 08:00N 59°19' E 018°10'0 0.3
2017-Nov-29 07:30N 59°19' E 018°10'0 0.0
2017-Nov-29 07:00N 59°19' E 018°10'0 0.0
2017-Nov-29 06:31N 59°19' E 018°10'0 0.0
2017-Nov-29 06:01N 59°19' E 018°10'0 0.0
2017-Nov-29 05:30N 59°19' E 018°10'0 0.0
2017-Nov-29 05:00N 59°19' E 018°10'0 0.0
2017-Nov-29 04:31N 59°19' E 018°10'0 0.0
2017-Nov-29 04:00N 59°19' E 018°10'0 0.0
2017-Nov-29 03:30N 59°19' E 018°10'0 0.0
2017-Nov-29 03:00N 59°19' E 018°10'0 0.0
2017-Nov-29 02:30N 59°19' E 018°10'0 0.0
2017-Nov-29 02:00N 59°19' E 018°10'0 0.0
2017-Nov-29 01:30N 59°19' E 018°10'0 0.0
2017-Nov-29 01:00N 59°19' E 018°10'0 0.0
2017-Nov-29 00:30N 59°19' E 018°10'0 0.0
2017-Nov-29 00:00N 59°19' E 018°10'0 0.0
2017-Nov-28 23:30N 59°19' E 018°10'0 0.0
2017-Nov-28 23:00N 59°19' E 018°10'0 0.0
2017-Nov-28 22:30N 59°19' E 018°10'0 0.0
2017-Nov-28 21:59N 59°19' E 018°10'0 0.0
2017-Nov-28 21:30N 59°19' E 018°10'0 0.0
2017-Nov-28 21:00N 59°19' E 018°10'0 0.0
2017-Nov-28 20:30N 59°19' E 018°10'0 0.0
2017-Nov-28 20:01N 59°19' E 018°10'0 0.0
2017-Nov-28 19:30N 59°19' E 018°10'0 0.0
2017-Nov-28 19:00N 59°19' E 018°10'0 0.0
2017-Nov-28 18:30N 59°19' E 018°10'0 0.0
2017-Nov-28 18:00N 59°19' E 018°10'0 0.0
2017-Nov-28 17:30N 59°19' E 018°10'0 0.0
2017-Nov-28 17:00N 59°19' E 018°10'0 0.0
2017-Nov-28 16:30N 59°19' E 018°10'0 0.0
2017-Nov-28 16:00N 59°19' E 018°10'0 0.0
2017-Nov-28 15:00N 59°19' E 018°10'0 0.0
2017-Nov-28 14:30N 59°19' E 018°10'0 0.0
2017-Nov-28 14:01N 59°19' E 018°10'0 0.6
2017-Nov-28 13:30N 59°19' E 018°10'9 0.3
2017-Nov-27 07:50N 59°22' E 018°27'928.4
2017-Nov-27 07:30N 59°19' E 018°10'0 0.2
2017-Nov-27 07:00N 59°19' E 018°10'0 0.0
2017-Nov-27 06:30N 59°19' E 018°10'0 0.0
2017-Nov-27 06:00N 59°19' E 018°10'0 0.0
2017-Nov-27 05:30N 59°19' E 018°10'0 0.0
2017-Nov-27 05:00N 59°19' E 018°10'0 0.0
2017-Nov-27 04:30N 59°19' E 018°10'0 0.0
2017-Nov-27 04:00N 59°19' E 018°10'0 0.0
2017-Nov-27 03:30N 59°19' E 018°10'0 0.0
2017-Nov-27 03:00N 59°19' E 018°10'0 0.0
2017-Nov-27 02:30N 59°19' E 018°10'0 0.0
2017-Nov-27 02:00N 59°19' E 018°10'0 0.0
2017-Nov-27 01:30N 59°19' E 018°10'0 0.0
2017-Nov-27 01:00N 59°19' E 018°10'0 0.0
2017-Nov-27 00:30N 59°19' E 018°10'0 0.0
2017-Nov-27 00:00N 59°19' E 018°10'0 0.0
2017-Nov-26 23:30N 59°19' E 018°10'0 0.0
2017-Nov-26 23:00N 59°19' E 018°10'0 0.0
2017-Nov-26 22:30N 59°19' E 018°10'0 0.0
2017-Nov-26 22:00N 59°19' E 018°10'0 0.0
2017-Nov-26 21:30N 59°19' E 018°10'0 0.0
2017-Nov-26 21:00N 59°19' E 018°10'0 0.0
2017-Nov-26 20:30N 59°19' E 018°10'0 0.0
2017-Nov-26 20:00N 59°19' E 018°10'0 0.0
2017-Nov-26 19:30N 59°19' E 018°10'0 0.0
2017-Nov-26 19:00N 59°19' E 018°10'0 0.0
2017-Nov-26 18:30N 59°19' E 018°10'0 0.0
2017-Nov-26 18:00N 59°19' E 018°10'0 0.0
2017-Nov-26 17:30N 59°19' E 018°10'0 0.0
2017-Nov-26 17:00N 59°19' E 018°10'0 0.0
2017-Nov-26 16:30N 59°19' E 018°10'0 0.0
2017-Nov-26 16:00N 59°19' E 018°10'0 0.0
2017-Nov-26 15:30N 59°19' E 018°10'0 0.0
2017-Nov-26 15:00N 59°19' E 018°10'0 0.0
2017-Nov-26 14:30N 59°19' E 018°10'0 0.0
2017-Nov-26 14:00N 59°19' E 018°10'0 0.0
2017-Nov-26 13:30N 59°19' E 018°10'0 0.0
2017-Nov-26 13:00N 59°19' E 018°10'0 0.0
2017-Nov-26 12:30N 59°19' E 018°10'0 0.0
2017-Nov-26 12:00N 59°19' E 018°10'0 0.0
2017-Nov-26 11:30N 59°19' E 018°10'0 0.0
2017-Nov-26 11:00N 59°19' E 018°10'0 0.0
2017-Nov-26 10:30N 59°19' E 018°10'0 0.0
2017-Nov-26 10:00N 59°19' E 018°10'0 0.0
2017-Nov-26 09:30N 59°19' E 018°10'0 0.0
2017-Nov-26 09:00N 59°19' E 018°10'0 0.0
2017-Nov-26 08:30N 59°19' E 018°10'0 0.0
2017-Nov-26 08:00N 59°19' E 018°10'0 0.0
2017-Nov-26 07:30N 59°19' E 018°10'0 0.0
2017-Nov-26 07:00N 59°19' E 018°10'0 0.0
2017-Nov-26 06:30N 59°19' E 018°10'0 0.0
2017-Nov-26 06:00N 59°19' E 018°10'0 0.0
2017-Nov-26 05:30N 59°19' E 018°10'0 0.0
2017-Nov-26 05:00N 59°19' E 018°10'0 0.0
2017-Nov-26 04:30N 59°19' E 018°10'0 0.0
2017-Nov-26 04:00N 59°19' E 018°10'0 0.0
2017-Nov-26 03:30N 59°19' E 018°10'0 0.0
2017-Nov-26 03:00N 59°19' E 018°10'0 0.0
2017-Nov-26 02:30N 59°19' E 018°10'0 0.0
2017-Nov-26 02:00N 59°19' E 018°10'0 0.0
2017-Nov-26 01:30N 59°19' E 018°10'0 0.0
2017-Nov-26 01:00N 59°19' E 018°10'0 0.0
2017-Nov-26 00:30N 59°19' E 018°10'0 0.0
2017-Nov-26 00:00N 59°19' E 018°10'0 0.0
2017-Nov-25 23:30N 59°19' E 018°10'0 0.0
2017-Nov-25 23:00N 59°19' E 018°10'0 0.0
2017-Nov-25 22:30N 59°19' E 018°10'0 0.0
2017-Nov-25 22:00N 59°19' E 018°10'0 0.0
2017-Nov-25 21:30N 59°19' E 018°10'0 0.0
2017-Nov-25 21:00N 59°19' E 018°10'0 0.0
2017-Nov-25 20:30N 59°19' E 018°10'0 0.0
2017-Nov-25 20:00N 59°19' E 018°10'0 0.0
2017-Nov-25 19:30N 59°19' E 018°10'0 0.0
2017-Nov-25 19:00N 59°19' E 018°10'0 0.0
2017-Nov-25 18:30N 59°19' E 018°10'0 0.0
2017-Nov-25 18:00N 59°19' E 018°10'0 0.0
2017-Nov-25 17:29N 59°19' E 018°10'0 0.0
2017-Nov-25 16:59N 59°19' E 018°10'0 0.0
2017-Nov-25 16:30N 59°19' E 018°10'0 0.0
2017-Nov-25 16:00N 59°19' E 018°10'0 0.0
2017-Nov-25 15:30N 59°19' E 018°10'0 0.0
2017-Nov-25 15:00N 59°19' E 018°10'0 0.0
2017-Nov-25 14:30N 59°19' E 018°10'0 0.0
2017-Nov-25 14:00N 59°19' E 018°10'0 0.0
2017-Nov-25 13:30N 59°19' E 018°10'0 0.0
2017-Nov-25 13:00N 59°19' E 018°10'0 0.0
2017-Nov-25 12:30N 59°19' E 018°10'0 0.0
2017-Nov-25 12:00N 59°19' E 018°10'0 0.0
2017-Nov-25 11:30N 59°19' E 018°10'0 0.0
2017-Nov-25 11:00N 59°19' E 018°10'0 0.0
2017-Nov-25 10:30N 59°19' E 018°10'0 0.0
2017-Nov-25 10:00N 59°19' E 018°10'0 0.0
2017-Nov-25 09:30N 59°19' E 018°10'0 0.0
2017-Nov-25 09:00N 59°19' E 018°10'0 0.0
2017-Nov-25 08:30N 59°19' E 018°10'0 0.0
2017-Nov-25 08:00N 59°19' E 018°10'0 0.0
2017-Nov-25 07:30N 59°19' E 018°10'0 0.0
2017-Nov-25 07:00N 59°19' E 018°10'0 0.0
2017-Nov-25 06:30N 59°19' E 018°10'0 0.0
2017-Nov-25 06:00N 59°19' E 018°10'0 0.0
2017-Nov-25 05:30N 59°19' E 018°10'0 0.0
2017-Nov-25 05:00N 59°19' E 018°10'0 0.0
2017-Nov-25 04:30N 59°19' E 018°10'0 0.0
2017-Nov-25 04:00N 59°19' E 018°10'0 0.0
2017-Nov-25 03:30N 59°19' E 018°10'0 0.0
2017-Nov-25 03:00N 59°19' E 018°10'0 0.0
2017-Nov-25 02:30N 59°19' E 018°10'0 0.0
2017-Nov-25 02:00N 59°19' E 018°10'0 0.0
2017-Nov-25 01:30N 59°19' E 018°10'0 0.0
2017-Nov-25 01:00N 59°19' E 018°10'0 0.0
2017-Nov-25 00:30N 59°19' E 018°10'0 0.0
2017-Nov-25 00:00N 59°19' E 018°10'0 0.0
2017-Nov-24 23:30N 59°19' E 018°10'0 0.0
2017-Nov-24 23:00N 59°19' E 018°10'0 0.0
2017-Nov-24 22:30N 59°19' E 018°10'0 0.0
2017-Nov-24 22:00N 59°19' E 018°10'0 0.0
2017-Nov-24 21:30N 59°19' E 018°10'0 0.0
2017-Nov-24 21:00N 59°19' E 018°10'0 0.0
2017-Nov-24 20:30N 59°19' E 018°10'0 0.0
2017-Nov-24 20:00N 59°19' E 018°10'0 0.0
2017-Nov-24 19:30N 59°19' E 018°10'0 0.0
2017-Nov-24 19:00N 59°19' E 018°10'0 0.0
2017-Nov-24 18:30N 59°19' E 018°10'0 0.0
2017-Nov-24 18:00N 59°19' E 018°10'0 0.0
2017-Nov-24 17:30N 59°19' E 018°10'0 0.0
2017-Nov-24 17:00N 59°19' E 018°10'0 0.0
2017-Nov-24 16:30N 59°19' E 018°10'0 0.0
2017-Nov-24 16:00N 59°19' E 018°10'0 0.0
2017-Nov-24 15:30N 59°19' E 018°10'0 0.0
2017-Nov-24 15:00N 59°19' E 018°10'0 0.0
2017-Nov-24 14:30N 59°19' E 018°10'0 0.0
2017-Nov-24 14:00N 59°19' E 018°10'0 0.0
2017-Nov-24 13:30N 59°19' E 018°10'0 0.0
2017-Nov-24 13:00N 59°19' E 018°10'0 0.0
2017-Nov-24 12:30N 59°19' E 018°10'0 0.0
2017-Nov-24 12:00N 59°19' E 018°10'0 0.0
2017-Nov-24 11:30N 59°19' E 018°10'0 0.0
2017-Nov-24 11:00N 59°19' E 018°10'0 0.0
2017-Nov-24 10:30N 59°19' E 018°10'0 0.0
2017-Nov-24 10:00N 59°19' E 018°10'  

Dump ship's entire track history